createdAt,value
2019-03-05T00:01:09.061Z,6.58
2019-03-05T00:03:39.178Z,6.52
2019-03-05T00:06:09.378Z,6.50
2019-03-05T00:08:39.385Z,6.57
2019-03-05T00:11:09.510Z,6.74
2019-03-05T00:13:39.709Z,6.67
2019-03-05T00:16:09.901Z,6.17
2019-03-05T00:18:39.917Z,6.25
2019-03-05T00:21:09.946Z,6.42
2019-03-05T00:24:11.857Z,6.38
2019-03-05T00:26:42.058Z,6.46
2019-03-05T00:29:58.937Z,6.48
2019-03-05T00:32:28.957Z,6.54
2019-03-05T00:36:00.678Z,5.39
2019-03-05T00:39:11.987Z,5.34
2019-03-05T00:42:05.780Z,5.05
2019-03-05T00:45:11.135Z,5.03
2019-03-05T00:48:18.220Z,5.33
2019-03-05T00:51:24.543Z,5.58
2019-03-05T00:54:20.661Z,5.39
2019-03-05T00:57:08.016Z,5.93
2019-03-05T01:00:04.011Z,6.03
2019-03-05T01:03:00.277Z,6.19
2019-03-05T01:06:06.499Z,5.90
2019-03-05T01:08:36.622Z,5.98
2019-03-05T01:11:06.994Z,5.71
2019-03-05T01:13:37.440Z,5.01
2019-03-05T01:16:08.021Z,5.40
2019-03-05T01:18:38.068Z,5.65
2019-03-05T01:21:08.272Z,5.98
2019-03-05T01:23:38.467Z,5.53
2019-03-05T01:26:08.578Z,5.66
2019-03-05T01:28:38.703Z,5.64
2019-03-05T01:31:18.373Z,5.60
2019-03-05T01:33:59.744Z,5.73
2019-03-05T01:36:32.362Z,6.00
2019-03-05T01:39:30.752Z,6.30
2019-03-05T01:42:01.077Z,5.77
2019-03-05T01:44:31.195Z,5.73
2019-03-05T01:47:01.404Z,3.93
2019-03-05T01:49:31.605Z,5.38
2019-03-05T01:52:01.610Z,5.32
2019-03-05T01:54:31.631Z,5.55
2019-03-05T01:57:01.827Z,5.77
2019-03-05T01:59:32.018Z,4.77
2019-03-05T02:02:02.117Z,4.61
2019-03-05T02:04:32.237Z,4.90
2019-03-05T02:07:02.431Z,5.09
2019-03-05T02:09:32.620Z,4.98
2019-03-05T02:12:02.833Z,4.92
2019-03-05T02:14:33.024Z,4.82
2019-03-05T02:17:03.131Z,4.42
2019-03-05T02:19:50.230Z,4.69
2019-03-05T02:22:32.975Z,4.71
2019-03-05T02:25:31.848Z,4.71
2019-03-05T02:28:39.866Z,4.64
2019-03-05T02:31:45.539Z,4.56
2019-03-05T02:34:49.782Z,4.56
2019-03-05T02:37:48.483Z,4.31
2019-03-05T02:40:41.155Z,4.25
2019-03-05T02:43:34.379Z,4.30
2019-03-05T02:46:50.435Z,4.53
2019-03-05T02:49:42.093Z,4.38
2019-03-05T02:52:51.492Z,4.18
2019-03-05T02:55:47.086Z,4.28
2019-03-05T02:58:14.920Z,4.36
2019-03-05T03:01:01.324Z,4.38
2019-03-05T03:03:35.597Z,4.47
2019-03-05T03:06:27.717Z,4.21
2019-03-05T03:09:44.203Z,4.29
2019-03-05T03:12:14.119Z,4.32
2019-03-05T03:14:44.331Z,2.89
2019-03-05T03:17:14.516Z,4.43
2019-03-05T03:19:44.614Z,4.34
2019-03-05T03:22:14.623Z,4.30
2019-03-05T03:24:44.845Z,4.31
2019-03-05T03:27:15.028Z,3.80
2019-03-05T03:29:45.027Z,3.65
2019-03-05T03:32:15.070Z,3.47
2019-03-05T03:34:45.309Z,2.75
2019-03-05T03:37:15.557Z,2.79
2019-03-05T03:39:45.474Z,3.30
2019-03-05T03:42:15.759Z,3.17
2019-03-05T03:44:45.963Z,3.40
2019-03-05T03:47:15.983Z,3.24
2019-03-05T03:49:46.186Z,3.49
2019-03-05T03:52:16.383Z,3.62
2019-03-05T03:54:46.584Z,3.18
2019-03-05T03:57:16.647Z,2.96
2019-03-05T03:59:46.863Z,2.71
2019-03-05T04:02:17.122Z,2.99
2019-03-05T04:04:47.128Z,3.17
2019-03-05T04:07:17.230Z,2.97
2019-03-05T04:09:47.461Z,2.86
2019-03-05T04:12:17.643Z,3.30
2019-03-05T04:14:47.749Z,2.95
2019-03-05T04:17:17.868Z,3.36
2019-03-05T04:19:48.060Z,3.15
2019-03-05T04:22:18.185Z,3.21
2019-03-05T04:24:48.375Z,3.31
2019-03-05T04:27:18.565Z,3.47
2019-03-05T04:29:48.566Z,3.52
2019-03-05T04:32:18.477Z,3.53
2019-03-05T04:34:48.673Z,3.59
2019-03-05T04:37:18.863Z,3.68
2019-03-05T04:39:48.771Z,3.53
2019-03-05T04:42:18.789Z,3.61
2019-03-05T04:44:57.682Z,3.25
2019-03-05T04:47:28.046Z,2.96
2019-03-05T04:50:06.666Z,3.39
2019-03-05T04:52:37.972Z,3.62
2019-03-05T04:55:08.919Z,4.08
2019-03-05T04:57:39.211Z,4.12
2019-03-05T05:00:12.790Z,4.07
2019-03-05T05:02:42.977Z,3.51
2019-03-05T05:05:13.086Z,3.40
2019-03-05T05:07:42.994Z,3.77
2019-03-05T05:10:13.281Z,3.82
2019-03-05T05:12:43.475Z,3.76
2019-03-05T05:15:44.751Z,3.95
2019-03-05T05:18:14.777Z,4.04
2019-03-05T05:20:45.021Z,3.97
2019-03-05T05:23:15.240Z,4.04
2019-03-05T05:25:45.266Z,4.26
2019-03-05T05:28:15.175Z,4.36
2019-03-05T05:30:45.496Z,4.48
2019-03-05T05:33:15.723Z,4.68
2019-03-05T05:35:45.704Z,4.50
2019-03-05T05:38:15.815Z,4.56
2019-03-05T05:40:47.061Z,4.33
2019-03-05T05:43:22.893Z,3.85
2019-03-05T05:45:53.557Z,3.79
2019-03-05T05:48:23.767Z,3.59
2019-03-05T05:50:53.769Z,3.57
2019-03-05T05:53:23.888Z,3.51
2019-03-05T05:55:54.080Z,2.92
2019-03-05T05:58:24.285Z,2.73
2019-03-05T06:00:56.708Z,2.71
2019-03-05T06:03:26.739Z,2.95
2019-03-05T06:05:57.146Z,3.42
2019-03-05T06:08:27.339Z,3.92
2019-03-05T06:10:57.455Z,3.83
2019-03-05T06:13:27.525Z,4.02
2019-03-05T06:15:57.778Z,4.06
2019-03-05T06:18:27.981Z,3.92
2019-03-05T06:20:57.886Z,4.32
2019-03-05T06:23:27.812Z,4.49
2019-03-05T06:25:58.009Z,4.57
2019-03-05T06:28:28.228Z,5.05
2019-03-05T06:30:58.122Z,5.17
2019-03-05T06:33:28.191Z,5.48
2019-03-05T06:35:58.658Z,5.02
2019-03-05T06:38:29.084Z,5.24
2019-03-05T06:40:58.994Z,6.76
2019-03-05T06:43:28.903Z,7.09
2019-03-05T06:45:59.443Z,7.68
2019-03-05T06:48:29.876Z,8.64
2019-03-05T06:50:59.790Z,9.13
2019-03-05T06:53:29.793Z,9.12
2019-03-05T06:56:00.001Z,9.33
2019-03-05T06:58:30.192Z,10.00
2019-03-05T07:01:00.293Z,10.00
2019-03-05T07:03:30.530Z,10.12
2019-03-05T07:06:36.019Z,10.61
2019-03-05T07:09:15.154Z,10.54
2019-03-05T07:12:13.187Z,10.53
2019-03-05T07:15:48.190Z,10.11
2019-03-05T07:18:31.823Z,10.95
2019-03-05T07:21:26.027Z,12.06
2019-03-05T07:24:38.395Z,11.48
2019-03-05T07:27:09.594Z,11.51
2019-03-05T07:29:39.787Z,11.15
2019-03-05T07:32:09.904Z,12.05
2019-03-05T07:34:42.575Z,12.51
2019-03-05T07:37:13.957Z,13.73
2019-03-05T07:39:43.960Z,12.51
2019-03-05T07:42:13.980Z,12.45
2019-03-05T07:44:44.394Z,12.88
2019-03-05T07:47:14.539Z,13.24
2019-03-05T07:49:44.833Z,14.07
2019-03-05T07:52:15.047Z,14.94
2019-03-05T07:54:44.947Z,13.13
2019-03-05T07:57:14.917Z,13.58
2019-03-05T07:59:45.113Z,12.75
2019-03-05T08:02:15.300Z,12.78
2019-03-05T08:04:45.225Z,13.81
2019-03-05T08:07:15.230Z,13.40
2019-03-05T08:09:45.438Z,14.79
2019-03-05T08:12:53.196Z,14.97
2019-03-05T08:16:01.728Z,15.23
2019-03-05T08:18:22.556Z,16.00
2019-03-05T08:20:52.800Z,16.98
2019-03-05T08:23:22.993Z,18.03
2019-03-05T08:25:52.912Z,18.22
2019-03-05T08:28:23.102Z,18.25
2019-03-05T08:30:53.093Z,18.23
2019-03-05T08:33:23.005Z,17.64
2019-03-05T08:35:53.210Z,17.45
2019-03-05T08:38:23.385Z,17.92
2019-03-05T08:40:53.503Z,18.25
2019-03-05T08:43:23.612Z,18.36
2019-03-05T08:45:53.989Z,18.69
2019-03-05T08:48:24.205Z,18.41
2019-03-05T08:50:54.197Z,19.48
2019-03-05T08:53:24.432Z,19.12
2019-03-05T08:55:54.669Z,19.98
2019-03-05T08:58:24.870Z,19.63
2019-03-05T09:00:54.982Z,20.13
2019-03-05T09:03:24.995Z,20.19
2019-03-05T09:05:55.185Z,19.95
2019-03-05T09:08:25.307Z,21.02
2019-03-05T09:10:56.107Z,21.59
2019-03-05T09:13:32.730Z,21.43
2019-03-05T09:15:58.124Z,21.10
2019-03-05T09:18:28.027Z,21.11
2019-03-05T09:20:58.240Z,21.97
2019-03-05T09:23:28.420Z,21.94
2019-03-05T09:25:58.430Z,21.83
2019-03-05T09:28:28.440Z,22.50
2019-03-05T09:30:58.645Z,22.09
2019-03-05T09:33:28.827Z,22.18
2019-03-05T09:35:58.826Z,21.84
2019-03-05T09:38:28.847Z,22.77
2019-03-05T09:40:59.082Z,22.95
2019-03-05T09:43:29.267Z,22.89
2019-03-05T09:45:59.786Z,23.09
2019-03-05T09:48:30.252Z,23.28
2019-03-05T09:51:00.263Z,23.00
2019-03-05T09:53:30.372Z,24.53
2019-03-05T09:56:00.746Z,23.05
2019-03-05T09:58:31.004Z,24.08
2019-03-05T10:01:00.946Z,23.06
2019-03-05T10:03:31.076Z,22.55
2019-03-05T10:06:01.293Z,23.14
2019-03-05T10:08:32.661Z,23.74
2019-03-05T10:11:03.064Z,23.84
2019-03-05T10:13:33.084Z,24.16
2019-03-05T10:16:03.379Z,24.31
2019-03-05T10:21:32.856Z,22.90
2019-03-05T10:24:10.408Z,23.82
2019-03-05T10:26:35.206Z,25.23
2019-03-05T10:29:07.576Z,24.54
2019-03-05T10:31:37.790Z,23.87
2019-03-05T10:34:09.458Z,24.17
2019-03-05T10:36:39.566Z,24.50
2019-03-05T10:39:30.685Z,25.16
2019-03-05T10:41:56.246Z,25.13
2019-03-05T10:44:26.452Z,26.85
2019-03-05T10:46:56.553Z,26.79
2019-03-05T10:49:26.858Z,26.76
2019-03-05T10:51:58.807Z,25.90
2019-03-05T10:54:29.143Z,26.12
2019-03-05T10:56:59.283Z,26.94
2019-03-05T10:59:29.310Z,27.50
2019-03-05T11:01:59.585Z,28.70
2019-03-05T11:04:29.774Z,27.14
2019-03-05T11:06:59.962Z,26.40
2019-03-05T11:09:30.150Z,27.20
2019-03-05T11:12:00.774Z,27.49
2019-03-05T11:14:31.318Z,25.94
2019-03-05T11:17:01.514Z,26.42
2019-03-05T11:19:31.699Z,26.99
2019-03-05T11:22:02.400Z,26.12
2019-03-05T11:24:32.949Z,26.83
2019-03-05T11:27:03.417Z,26.96
2019-03-05T11:29:34.036Z,26.61
2019-03-05T11:32:04.468Z,26.09
2019-03-05T11:34:35.028Z,26.56
2019-03-05T11:37:05.552Z,27.30
2019-03-05T11:39:35.952Z,28.77
2019-03-05T11:42:06.292Z,28.39
2019-03-05T11:44:36.787Z,27.97
2019-03-05T11:47:07.040Z,27.72
2019-03-05T11:49:37.231Z,28.18
2019-03-05T11:52:07.385Z,27.05
2019-03-05T11:54:37.408Z,27.15
2019-03-05T11:57:07.629Z,27.69
2019-03-05T11:59:37.815Z,27.84
2019-03-05T12:02:09.810Z,27.49
2019-03-05T12:04:39.973Z,27.91
2019-03-05T12:07:10.170Z,27.04
2019-03-05T12:09:40.364Z,26.71
2019-03-05T12:12:10.383Z,26.16
2019-03-05T12:14:40.402Z,26.80
2019-03-05T12:17:10.599Z,26.72
2019-03-05T12:19:40.894Z,25.32
2019-03-05T12:22:11.140Z,25.01
2019-03-05T12:24:41.333Z,26.75
2019-03-05T12:27:11.491Z,26.43
2019-03-05T12:29:41.507Z,27.36
2019-03-05T12:32:11.708Z,28.02
2019-03-05T12:34:41.906Z,28.23
2019-03-05T12:37:11.921Z,28.03
2019-03-05T12:39:42.578Z,26.98
2019-03-05T12:42:12.772Z,27.09
2019-03-05T12:44:42.976Z,28.03
2019-03-05T12:47:13.071Z,27.28
2019-03-05T12:49:42.981Z,27.71
2019-03-05T12:52:13.492Z,27.82
2019-03-05T12:54:43.691Z,27.17
2019-03-05T12:57:13.867Z,27.66
2019-03-05T12:59:43.966Z,27.70
2019-03-05T13:02:14.239Z,28.13
2019-03-05T13:04:44.434Z,28.89
2019-03-05T13:07:17.774Z,27.54
2019-03-05T13:09:46.363Z,26.92
2019-03-05T13:12:16.385Z,26.07
2019-03-05T13:14:46.377Z,26.08
2019-03-05T13:17:16.645Z,26.22
2019-03-05T13:19:47.942Z,27.23
2019-03-05T13:22:19.035Z,27.24
2019-03-05T13:24:50.308Z,26.72
2019-03-05T13:27:22.809Z,26.81
2019-03-05T13:29:53.212Z,27.58
2019-03-05T13:32:23.103Z,27.41
2019-03-05T13:34:53.107Z,27.30
2019-03-05T13:37:24.876Z,27.94
2019-03-05T13:39:58.144Z,28.39
2019-03-05T13:42:29.109Z,29.65
2019-03-05T13:44:58.619Z,30.08
2019-03-05T13:47:28.815Z,28.00
2019-03-05T13:50:45.431Z,28.86
2019-03-05T13:53:35.327Z,28.04
2019-03-05T13:56:51.819Z,25.99
2019-03-05T13:59:43.980Z,26.11
2019-03-05T14:02:16.344Z,26.49
2019-03-05T14:04:55.808Z,26.04
2019-03-05T14:07:59.928Z,26.81
2019-03-05T14:10:30.035Z,25.75
2019-03-05T14:13:00.127Z,26.64
2019-03-05T14:15:30.601Z,26.63
2019-03-05T14:18:00.969Z,25.98
2019-03-05T14:20:34.980Z,25.51
2019-03-05T14:23:04.087Z,26.00
2019-03-05T14:25:34.444Z,25.60
2019-03-05T14:28:04.629Z,24.29
2019-03-05T14:30:35.663Z,23.59
2019-03-05T14:33:06.373Z,23.33
2019-03-05T14:35:36.719Z,22.51
2019-03-05T14:38:06.936Z,22.64
2019-03-05T14:40:37.997Z,22.14
2019-03-05T14:43:08.550Z,21.69
2019-03-05T14:45:39.123Z,20.53
2019-03-05T14:48:09.166Z,20.15
2019-03-05T14:50:39.624Z,20.08
2019-03-05T14:53:09.831Z,19.75
2019-03-05T14:55:39.937Z,18.95
2019-03-05T14:58:10.043Z,19.28
2019-03-05T15:00:40.700Z,18.66
2019-03-05T15:03:10.949Z,18.70
2019-03-05T15:05:41.452Z,18.05
2019-03-05T15:08:11.559Z,17.89
2019-03-05T15:10:41.880Z,17.92
2019-03-05T15:13:15.766Z,17.51
2019-03-05T15:15:43.703Z,17.91
2019-03-05T15:18:13.989Z,18.29
2019-03-05T15:20:43.989Z,17.51
2019-03-05T15:23:14.448Z,17.77
2019-03-05T15:25:44.850Z,17.67
2019-03-05T15:28:15.019Z,17.78
2019-03-05T15:30:45.250Z,17.70
2019-03-05T15:33:15.314Z,17.69
2019-03-05T15:35:45.536Z,17.37
2019-03-05T15:38:15.877Z,17.46
2019-03-05T15:40:45.957Z,17.53
2019-03-05T15:43:15.967Z,17.22
2019-03-05T15:45:46.236Z,17.42
2019-03-05T15:48:16.490Z,17.51
2019-03-05T15:50:46.561Z,16.90
2019-03-05T15:53:16.807Z,16.79
2019-03-05T15:55:46.815Z,16.80
2019-03-05T15:58:17.049Z,17.08
2019-03-05T16:00:47.237Z,16.94
2019-03-05T16:03:17.442Z,17.14
2019-03-05T16:05:47.569Z,17.15
2019-03-05T16:08:20.981Z,16.98
2019-03-05T16:10:50.460Z,16.77
2019-03-05T16:13:21.467Z,17.02
2019-03-05T16:15:51.578Z,16.99
2019-03-05T16:18:21.598Z,17.10
2019-03-05T16:20:51.827Z,17.20
2019-03-05T16:23:22.277Z,17.55
2019-03-05T16:25:52.703Z,17.70
2019-03-05T16:28:23.148Z,17.21
2019-03-05T16:31:21.944Z,16.67
2019-03-05T16:34:13.010Z,16.71
2019-03-05T16:37:02.084Z,16.49
2019-03-05T16:39:41.280Z,16.49
2019-03-05T16:42:32.239Z,17.06
2019-03-05T16:45:20.496Z,17.28
2019-03-05T16:48:15.556Z,17.08
2019-03-05T16:51:07.546Z,16.84
2019-03-05T16:53:52.795Z,16.31
2019-03-05T16:56:41.755Z,16.54
2019-03-05T16:59:34.011Z,16.28
2019-03-05T17:02:26.187Z,15.72
2019-03-05T17:05:24.076Z,15.97
2019-03-05T17:08:02.884Z,15.94
2019-03-05T17:10:51.044Z,15.25
2019-03-05T17:13:21.276Z,15.52
2019-03-05T17:15:51.353Z,15.62
2019-03-05T17:18:21.489Z,15.46
2019-03-05T17:20:51.696Z,15.02
2019-03-05T17:23:22.144Z,15.30
2019-03-05T17:25:52.428Z,15.53
2019-03-05T17:28:22.560Z,15.30
2019-03-05T17:30:52.783Z,15.33
2019-03-05T17:33:22.994Z,15.31
2019-03-05T17:35:53.120Z,14.98
2019-03-05T17:38:23.258Z,14.56
2019-03-05T17:40:53.465Z,14.71
2019-03-05T17:43:24.020Z,14.77
2019-03-05T17:45:54.060Z,14.46
2019-03-05T17:48:24.116Z,14.24
2019-03-05T17:50:54.323Z,14.22
2019-03-05T17:53:24.538Z,14.31
2019-03-05T17:55:54.557Z,14.23
2019-03-05T17:58:24.767Z,14.47
2019-03-05T18:00:55.089Z,14.18
2019-03-05T18:03:25.241Z,14.46
2019-03-05T18:05:55.833Z,14.47
2019-03-05T18:08:26.050Z,14.32
2019-03-05T18:10:56.185Z,14.15
2019-03-05T18:13:26.308Z,13.84
2019-03-05T18:15:56.505Z,14.12
2019-03-05T18:18:26.725Z,14.19
2019-03-05T18:20:56.680Z,14.40
2019-03-05T18:23:26.983Z,13.77
2019-03-05T18:25:57.343Z,14.09
2019-03-05T18:28:27.923Z,14.04
2019-03-05T18:30:58.149Z,13.82
2019-03-05T18:33:28.304Z,13.57
2019-03-05T18:35:58.496Z,13.34
2019-03-05T18:38:28.774Z,13.53
2019-03-05T18:40:58.998Z,13.68
2019-03-05T18:43:29.240Z,13.87
2019-03-05T18:45:59.368Z,14.05
2019-03-05T18:48:29.523Z,13.66
2019-03-05T18:51:00.117Z,13.82
2019-03-05T18:53:30.400Z,13.73
2019-03-05T18:56:00.553Z,13.54
2019-03-05T18:58:30.499Z,13.53
2019-03-05T19:01:00.729Z,13.66
2019-03-05T19:03:32.061Z,13.58
2019-03-05T19:06:02.349Z,13.48
2019-03-05T19:08:32.277Z,13.53
2019-03-05T19:11:02.885Z,13.57
2019-03-05T19:13:33.334Z,13.32
2019-03-05T19:16:04.194Z,13.28
2019-03-05T19:18:34.501Z,13.51
2019-03-05T19:21:05.004Z,13.54
2019-03-05T19:23:35.461Z,13.11
2019-03-05T19:26:06.791Z,12.55
2019-03-05T19:28:37.005Z,12.62
2019-03-05T19:31:07.296Z,12.11
2019-03-05T19:33:37.480Z,12.46
2019-03-05T19:36:07.889Z,12.89
2019-03-05T19:38:38.113Z,12.86
2019-03-05T19:41:08.383Z,13.09
2019-03-05T19:43:38.533Z,13.18
2019-03-05T19:46:08.750Z,13.22
2019-03-05T19:48:38.977Z,13.37
2019-03-05T19:51:09.093Z,13.12
2019-03-05T19:53:39.349Z,13.07
2019-03-05T19:56:09.584Z,13.21
2019-03-05T19:58:39.932Z,13.24
2019-03-05T20:01:15.957Z,13.06
2019-03-05T20:03:46.273Z,12.77
2019-03-05T20:06:18.223Z,12.80
2019-03-05T20:08:48.452Z,12.89
2019-03-05T20:11:18.688Z,13.11
2019-03-05T20:13:48.935Z,12.57
2019-03-05T20:16:20.424Z,12.53
2019-03-05T20:18:50.609Z,12.64
2019-03-05T20:21:20.830Z,12.79
2019-03-05T20:23:51.046Z,13.01
2019-03-05T20:26:21.344Z,13.05
2019-03-05T20:28:52.649Z,12.66
2019-03-05T20:31:23.052Z,12.84
2019-03-05T20:33:53.370Z,12.98
2019-03-05T20:36:23.407Z,13.08
2019-03-05T20:38:53.640Z,13.15
2019-03-05T20:41:23.661Z,12.85
2019-03-05T20:43:53.701Z,12.65
2019-03-05T20:46:26.866Z,13.11
2019-03-05T20:48:57.098Z,13.14
2019-03-05T20:51:27.238Z,13.09
2019-03-05T20:53:57.900Z,13.26
2019-03-05T20:56:28.128Z,13.10
2019-03-05T20:58:58.347Z,13.06
2019-03-05T21:01:28.570Z,13.06
2019-03-05T21:03:58.638Z,13.01
2019-03-05T21:06:28.885Z,12.99
2019-03-05T21:08:59.104Z,12.85
2019-03-05T21:11:29.152Z,12.39
2019-03-05T21:13:59.307Z,12.31
2019-03-05T21:16:29.514Z,12.22
2019-03-05T21:18:59.467Z,11.58
2019-03-05T21:21:30.122Z,11.98
2019-03-05T21:24:00.341Z,11.93
2019-03-05T21:26:30.744Z,11.57
2019-03-05T21:29:00.882Z,11.83
2019-03-05T21:31:31.103Z,11.79
2019-03-05T21:34:01.448Z,11.19
2019-03-05T21:36:31.571Z,11.12
2019-03-05T21:39:01.778Z,10.79
2019-03-05T21:41:31.986Z,11.30
2019-03-05T21:44:02.177Z,11.55
2019-03-05T21:46:32.100Z,11.49
2019-03-05T21:49:02.024Z,11.00
2019-03-05T21:51:32.237Z,11.42
2019-03-05T21:54:02.443Z,11.60
2019-03-05T21:56:32.571Z,11.63
2019-03-05T21:59:02.771Z,11.75
2019-03-05T22:01:33.369Z,11.55
2019-03-05T22:04:03.413Z,11.59
2019-03-05T22:06:33.634Z,11.50
2019-03-05T22:09:04.816Z,11.18
2019-03-05T22:11:34.928Z,11.19
2019-03-05T22:14:05.038Z,11.37
2019-03-05T22:16:35.241Z,11.17
2019-03-05T22:19:05.456Z,10.20
2019-03-05T22:21:35.470Z,10.35
2019-03-05T22:24:06.074Z,10.77
2019-03-05T22:26:36.496Z,11.02
2019-03-05T22:29:07.282Z,11.00
2019-03-05T22:31:37.203Z,10.98
2019-03-05T22:34:07.373Z,11.22
2019-03-05T22:36:37.585Z,11.46
2019-03-05T22:39:08.890Z,11.50
2019-03-05T22:41:39.607Z,10.79
2019-03-05T22:44:09.638Z,10.78
2019-03-05T22:46:40.229Z,11.30
2019-03-05T22:49:10.437Z,11.46
2019-03-05T22:51:40.356Z,11.37
2019-03-05T22:54:10.282Z,11.33
2019-03-05T22:56:40.503Z,11.52
2019-03-05T22:59:10.776Z,11.24
2019-03-05T23:01:43.424Z,11.31
2019-03-05T23:04:16.118Z,11.45
2019-03-05T23:06:46.340Z,11.64
2019-03-05T23:09:26.945Z,11.76
2019-03-05T23:11:57.351Z,11.85
2019-03-05T23:14:27.471Z,12.00
2019-03-05T23:16:57.661Z,12.04
2019-03-05T23:19:28.523Z,11.74
2019-03-05T23:21:58.839Z,11.60
2019-03-05T23:24:29.031Z,11.77
2019-03-05T23:26:59.141Z,11.15
2019-03-05T23:29:42.942Z,10.96
2019-03-05T23:32:13.786Z,11.17
2019-03-05T23:34:43.990Z,11.57
2019-03-05T23:37:14.102Z,11.72
2019-03-05T23:39:44.460Z,11.89
2019-03-05T23:42:14.669Z,11.92
2019-03-05T23:44:44.850Z,12.07
2019-03-05T23:47:14.975Z,11.99
2019-03-05T23:49:44.980Z,11.84
2019-03-05T23:52:15.195Z,11.79
2019-03-05T23:54:45.394Z,11.78
2019-03-05T23:57:15.416Z,11.64
2019-03-05T23:59:45.605Z,11.02
